Time;durP1;ratioP1;P1;durP2;ratioP2;P2;SDS_P1;SDS_P2;PMS_P1;PMS_P2;Temp;Humidity;BMP_temperature;BMP_pressure;BME280_temperature;BME280_humidity;BME280_pressure;Samples;Min_cycle;Max_cycle;Signal;HPM_P1;HPM_P2
2023/05/31 00:01:38;;;;;;;14.73;10.20;;;16.50;70.50;;;15.86;56.76;101462.78;5016915;28;20041;-78
2023/05/31 00:04:06;;;;;;;15.48;9.73;;;16.50;70.30;;;15.87;56.76;101464.44;5029703;28;20042;-79
2023/05/31 00:06:35;;;;;;;18.23;10.63;;;16.50;70.50;;;15.86;56.94;101461.94;5012491;28;20569;-79
2023/05/31 00:09:03;;;;;;;15.98;10.93;;;16.50;70.50;;;15.84;56.86;101464.03;5011772;28;20049;-79
2023/05/31 00:11:30;;;;;;;18.23;10.35;;;16.50;70.50;;;15.82;56.84;101466.97;5023218;28;20037;-79
2023/05/31 00:13:57;;;;;;;15.40;9.82;;;16.40;70.60;;;15.81;57.01;101469.84;5030910;28;20064;-78
2023/05/31 00:16:24;;;;;;;14.13;10.45;;;16.40;70.50;;;15.81;56.89;101467.16;5012815;28;20069;-79
2023/05/31 00:18:51;;;;;;;20.10;11.38;;;16.40;70.50;;;15.78;56.84;101463.06;5000893;28;20128;-79
2023/05/31 00:21:18;;;;;;;15.75;11.23;;;16.40;70.70;;;15.77;57.00;101461.44;5019824;28;20414;-79
2023/05/31 00:23:48;;;;;;;15.13;10.38;;;16.40;70.70;;;15.75;57.03;101476.13;5032384;28;20397;-79
2023/05/31 00:26:15;;;;;;;15.50;10.50;;;16.40;70.80;;;15.72;57.09;101469.34;5013597;28;20049;-79
2023/05/31 00:28:44;;;;;;;16.98;10.93;;;16.40;70.90;;;15.69;57.28;101483.22;4993867;28;20061;-79
2023/05/31 00:31:11;;;;;;;16.10;10.70;;;16.30;71.00;;;15.66;57.32;101478.25;4998168;28;20104;-79
2023/05/31 00:33:38;;;;;;;18.02;10.13;;;16.30;70.90;;;15.63;57.44;101473.31;5019897;28;20049;-79
2023/05/31 00:36:06;;;;;;;14.15;9.98;;;16.30;71.30;;;15.58;57.36;101462.38;5003336;28;20550;-79
2023/05/31 00:38:33;;;;;;;14.20;11.02;;;16.30;71.30;;;15.54;57.39;101459.31;4983514;28;20529;-79
2023/05/31 00:41:02;;;;;;;20.10;11.45;;;16.20;71.10;;;15.52;57.34;101461.41;5016349;28;20149;-79
2023/05/31 00:43:29;;;;;;;14.23;9.90;;;16.20;71.20;;;15.52;57.61;101457.88;5012256;28;20044;-79
2023/05/31 00:45:56;;;;;;;16.48;11.38;;;16.20;71.30;;;15.50;57.71;101470.72;5013740;28;20081;-79
2023/05/31 00:48:24;;;;;;;15.15;10.55;;;16.10;71.50;;;15.46;57.68;101468.47;5011213;28;20438;-79
2023/05/31 00:50:51;;;;;;;16.83;11.45;;;16.10;71.50;;;15.45;57.76;101461.44;4989841;28;20057;-79
2023/05/31 00:53:19;;;;;;;16.52;10.75;;;16.10;71.50;;;15.40;57.70;101463.97;4990558;28;20076;-79
2023/05/31 00:55:52;;;;;;;16.63;10.93;;;16.10;71.60;;;15.38;57.81;101479.50;5004525;28;20041;-79
2023/05/31 00:58:22;;;;;;;16.52;11.23;;;16.10;71.70;;;15.35;57.76;101476.41;5002971;28;20149;-79
2023/05/31 01:00:49;;;;;;;15.90;10.32;;;16.00;71.70;;;15.33;57.85;101473.97;5017712;28;20456;-79
2023/05/31 01:03:18;;;;;;;17.40;11.80;;;16.00;71.80;;;15.31;57.81;101478.72;5015912;28;20656;-79
2023/05/31 01:05:46;;;;;;;17.48;12.07;;;15.90;72.00;;;15.30;58.13;101473.56;5004591;28;20066;-79
2023/05/31 01:08:16;;;;;;;16.45;11.52;;;15.90;72.30;;;15.27;58.08;101476.66;4978529;28;20591;-79
2023/05/31 01:10:44;;;;;;;16.75;11.43;;;15.90;72.30;;;15.24;58.19;101469.88;5022881;28;20120;-79
2023/05/31 01:13:26;;;;;;;17.13;12.40;;;15.90;72.40;;;15.22;58.42;101474.63;5012962;28;20065;-79
2023/05/31 01:16:08;;;;;;;18.58;12.35;;;15.90;72.90;;;15.20;58.53;101480.22;4993070;28;20049;-79
2023/05/31 01:18:46;;;;;;;20.67;13.10;;;15.90;72.50;;;15.20;58.62;101479.41;4999828;28;20386;-79
2023/05/31 01:21:19;;;;;;;16.05;11.38;;;15.80;72.50;;;15.18;58.34;101476.97;5027631;22;20454;-81
2023/05/31 01:24:01;;;;;;;17.70;12.32;;;15.80;72.50;;;15.14;58.43;101477.59;5007986;28;20053;-81
2023/05/31 01:26:42;;;;;;;18.35;12.13;;;15.80;72.50;;;15.11;58.46;101475.34;5010718;28;20050;-81
2023/05/31 01:29:14;;;;;;;15.70;10.88;;;15.70;72.70;;;15.04;58.43;101469.19;5008198;28;20125;-81
2023/05/31 01:31:43;;;;;;;17.02;12.02;;;15.70;72.70;;;15.02;58.66;101474.75;5009946;28;20042;-81
2023/05/31 01:34:11;;;;;;;16.35;11.52;;;15.70;72.80;;;15.01;58.42;101464.25;5010103;28;20042;-81
2023/05/31 01:36:39;;;;;;;17.50;12.65;;;15.60;72.50;;;15.01;58.75;101457.00;5010104;28;20485;-81
2023/05/31 01:39:07;;;;;;;18.90;12.15;;;15.60;72.90;;;14.98;58.64;101465.47;5009443;28;20080;-82
2023/05/31 01:41:41;;;;;;;18.35;12.15;;;15.60;72.90;;;14.97;58.85;101465.72;5003121;28;20052;-81
2023/05/31 01:44:10;;;;;;;20.25;12.60;;;15.60;73.00;;;14.97;58.93;101468.41;4989636;28;20050;-81
2023/05/31 01:46:39;;;;;;;18.55;12.15;;;15.60;73.10;;;14.94;59.17;101473.16;5010753;28;20070;-81
2023/05/31 01:49:07;;;;;;;17.90;12.18;;;15.60;73.00;;;14.95;58.85;101476.69;4991076;28;20493;-81
2023/05/31 01:51:37;;;;;;;19.73;13.60;;;15.60;73.10;;;14.92;58.81;101472.53;4988937;28;20493;-81
2023/05/31 01:54:05;;;;;;;17.45;12.15;;;15.60;72.90;;;14.88;58.94;101476.72;5003318;28;20477;-81
2023/05/31 01:56:32;;;;;;;18.92;12.13;;;15.60;73.10;;;14.84;58.85;101475.50;5008616;28;20149;-81
2023/05/31 01:59:02;;;;;;;17.45;11.68;;;15.50;73.20;;;14.80;58.89;101474.28;4991717;28;20037;-81
2023/05/31 02:01:30;;;;;;;17.05;12.77;;;15.40;73.00;;;14.78;58.94;101470.97;5001508;28;20100;-81
2023/05/31 02:03:58;;;;;;;18.70;13.02;;;15.40;73.20;;;14.74;59.11;101474.28;4992341;28;20104;-81
2023/05/31 02:06:27;;;;;;;17.95;12.48;;;15.40;73.30;;;14.72;59.06;101469.16;4992595;28;20517;-81
2023/05/31 02:08:55;;;;;;;18.90;12.25;;;15.40;73.30;;;14.72;59.22;101465.63;4991044;28;20141;-81
2023/05/31 02:11:27;;;;;;;18.48;12.23;;;15.40;73.50;;;14.70;59.45;101476.59;4983708;28;20069;-81
2023/05/31 02:13:56;;;;;;;17.00;12.68;;;15.40;73.70;;;14.70;59.49;101470.41;5008692;28;20425;-81
2023/05/31 02:16:25;;;;;;;19.42;12.25;;;15.30;73.70;;;14.71;59.45;101474.75;5007816;28;20093;-81
2023/05/31 02:18:52;;;;;;;17.33;11.95;;;15.30;73.80;;;14.69;59.56;101472.28;5007998;28;20050;-81
2023/05/31 02:21:23;;;;;;;15.88;11.43;;;15.30;73.70;;;14.68;59.23;101475.97;4990893;28;20421;-81
2023/05/31 02:23:50;;;;;;;16.17;11.68;;;15.30;73.60;;;14.66;59.70;101472.69;5009279;28;20042;-81
2023/05/31 02:26:18;;;;;;;19.35;11.95;;;15.30;74.40;;;14.64;59.81;101474.75;5009789;28;20506;-81
2023/05/31 02:28:45;;;;;;;17.10;11.70;;;15.30;74.30;;;14.64;59.73;101472.91;5007159;28;20576;-81
2023/05/31 02:31:13;;;;;;;16.65;11.82;;;15.30;74.30;;;14.64;59.91;101466.69;5003551;28;20042;-81
2023/05/31 02:33:42;;;;;;;17.23;11.52;;;15.50;74.30;;;14.64;59.59;101464.00;4996108;28;20124;-81
2023/05/31 02:36:11;;;;;;;18.13;11.98;;;15.30;74.30;;;14.63;59.92;101473.94;5007659;28;20046;-81
2023/05/31 02:38:38;;;;;;;16.45;11.98;;;15.30;74.50;;;14.64;59.90;101477.44;5006346;28;20034;-81
2023/05/31 02:41:06;;;;;;;17.25;12.45;;;15.30;74.40;;;14.65;60.05;101479.09;4998723;28;20041;-81
2023/05/31 02:43:33;;;;;;;16.65;11.52;;;15.30;74.40;;;14.63;59.79;101484.66;5008100;28;20073;-81
2023/05/31 02:46:02;;;;;;;28.25;12.65;;;15.30;74.50;;;14.63;60.00;101475.78;4972626;28;20105;-81
2023/05/31 02:48:30;;;;;;;15.77;11.57;;;15.30;74.50;;;14.62;59.95;101472.28;4977025;28;20755;-81
2023/05/31 02:50:59;;;;;;;18.52;11.82;;;15.30;74.60;;;14.61;60.22;101467.13;5005182;28;20062;-81
2023/05/31 02:53:47;;;;;;;17.27;11.60;;;15.20;74.50;;;14.60;60.20;101468.19;5008804;28;20041;-81
2023/05/31 02:56:19;;;;;;;18.02;12.30;;;15.30;74.60;;;14.60;60.07;101463.63;4988275;28;20045;-81
2023/05/31 02:59:02;;;;;;;15.40;11.30;;;15.20;74.50;;;14.61;60.20;101464.44;4978301;28;20060;-81
2023/05/31 03:01:56;;;;;;;16.90;11.75;;;15.20;74.70;;;14.59;60.09;101478.09;5001409;28;20477;-82
2023/05/31 03:04:30;;;;;;;18.23;11.50;;;15.20;74.60;;;14.57;60.25;101480.16;5009194;28;20556;-81
2023/05/31 03:07:00;;;;;;;17.30;11.77;;;15.20;74.90;;;14.55;60.16;101470.69;4989828;28;20054;-81
2023/05/31 03:09:30;;;;;;;16.08;11.98;;;15.20;74.90;;;14.55;60.28;101474.19;4982632;28;20049;-81
2023/05/31 03:11:58;;;;;;;15.48;10.95;;;15.20;74.70;;;14.54;60.22;101480.59;4987712;28;20240;-81
2023/05/31 03:14:25;;;;;;;16.15;11.80;;;15.20;74.70;;;14.54;60.19;101474.38;5003349;28;20045;-80
2023/05/31 03:16:56;;;;;;;15.98;11.48;;;15.20;74.80;;;14.53;60.30;101473.56;4988112;28;20462;-81
2023/05/31 03:19:23;;;;;;;16.52;11.60;;;15.20;74.80;;;14.52;59.99;101466.56;5008263;28;20525;-81
2023/05/31 03:21:53;;;;;;;16.48;11.55;;;15.20;74.80;;;14.51;60.23;101456.03;5004002;28;20054;-81
2023/05/31 03:24:21;;;;;;;17.40;11.45;;;15.20;74.70;;;14.52;60.16;101463.03;5007132;28;20449;-80
2023/05/31 03:26:51;;;;;;;15.93;11.27;;;15.20;74.70;;;14.50;60.33;101459.75;5008170;28;20096;-81
2023/05/31 03:29:19;;;;;;;16.58;11.63;;;15.10;75.00;;;14.48;60.55;101456.44;4988828;28;20049;-81
2023/05/31 03:31:48;;;;;;;18.00;12.50;;;15.10;75.10;;;14.48;60.43;101448.41;5005019;28;20108;-81
2023/05/31 03:34:16;;;;;;;17.63;12.13;;;15.10;74.90;;;14.47;60.31;101446.72;4990171;28;20041;-80
2023/05/31 03:36:43;;;;;;;17.65;12.35;;;15.10;75.00;;;14.46;60.25;101437.84;4988425;28;20073;-81
2023/05/31 03:39:32;;;;;;;18.42;11.77;;;15.10;75.00;;;14.45;60.59;101443.44;4992852;28;20426;-81
2023/05/31 03:42:02;;;;;;;15.95;11.95;;;15.10;75.10;;;14.43;60.47;101444.44;5005408;28;20149;-81
2023/05/31 03:44:30;;;;;;;20.10;13.18;;;15.10;75.20;;;14.44;60.41;101453.31;5004512;28;20049;-81
2023/05/31 03:46:58;;;;;;;16.70;12.13;;;15.10;75.30;;;14.41;60.64;101454.59;4999605;28;20088;-81
2023/05/31 03:49:25;;;;;;;18.30;12.30;;;15.10;75.30;;;14.41;60.65;101457.28;4987006;28;20057;-81
2023/05/31 03:51:53;;;;;;;18.17;12.32;;;15.10;75.40;;;14.42;60.64;101455.41;5007548;28;20507;-81
2023/05/31 03:54:20;;;;;;;16.38;11.60;;;15.10;75.40;;;14.42;60.77;101455.41;5009975;28;20782;-81
2023/05/31 03:56:50;;;;;;;18.08;11.98;;;15.10;75.50;;;14.42;60.81;101456.22;4989255;28;20478;-81
2023/05/31 03:59:17;;;;;;;19.50;11.95;;;15.10;75.40;;;14.42;60.81;101461.59;5007226;28;20050;-81
2023/05/31 04:01:44;;;;;;;20.08;12.52;;;15.10;75.40;;;14.43;60.72;101460.56;5005972;28;20085;-80
2023/05/31 04:04:12;;;;;;;20.20;12.75;;;15.10;75.60;;;14.43;60.90;101460.56;5007961;28;20085;-78
2023/05/31 04:06:39;;;;;;;19.77;12.60;;;15.10;75.60;;;14.45;60.91;101464.91;4990157;28;20133;-78
2023/05/31 04:09:06;;;;;;;17.58;12.02;;;15.10;75.60;;;14.44;61.01;101461.38;4985759;28;20074;-80
2023/05/31 04:11:33;;;;;;;19.15;12.02;;;15.10;75.70;;;14.45;60.88;101470.28;4999213;28;20041;-79
2023/05/31 04:14:02;;;;;;;18.45;13.30;;;15.10;75.80;;;14.43;61.00;101463.25;5003993;28;20049;-79
2023/05/31 04:16:29;;;;;;;20.52;11.95;;;15.10;75.90;;;14.47;61.24;101463.66;5006642;28;20045;-79
2023/05/31 04:18:57;;;;;;;16.75;12.20;;;15.10;75.80;;;14.48;61.23;101449.22;4993598;28;20148;-79
2023/05/31 04:21:26;;;;;;;20.35;12.93;;;15.10;76.00;;;14.49;61.01;101447.34;4992680;28;20627;-79
2023/05/31 04:23:53;;;;;;;23.20;12.50;;;15.10;75.90;;;14.48;61.05;101451.91;5009210;28;20522;-78
2023/05/31 04:26:20;;;;;;;17.98;12.35;;;15.20;75.80;;;14.50;60.93;101455.22;4997511;28;20141;-79
2023/05/31 04:28:51;;;;;;;17.20;12.50;;;15.10;76.20;;;14.50;60.96;101454.38;4994849;28;20100;-79
2023/05/31 04:31:24;;;;;;;19.20;11.93;;;15.10;76.10;;;14.51;61.35;101453.34;4992845;28;20054;-79
2023/05/31 04:33:53;;;;;;;19.10;12.25;;;15.20;76.40;;;14.56;61.38;101457.03;5009731;28;20065;-80
2023/05/31 04:36:20;;;;;;;17.13;12.70;;;15.20;76.40;;;14.65;61.50;101460.31;4992800;28;20131;-79
2023/05/31 04:38:49;;;;;;;19.10;11.95;;;15.30;76.60;;;14.76;61.22;101465.00;4989807;28;20146;-80
2023/05/31 04:41:20;;;;;;;17.55;12.88;;;15.40;76.40;;;14.90;61.25;101452.31;4997807;28;20502;-79
2023/05/31 04:43:48;;;;;;;17.02;12.45;;;15.50;76.40;;;15.03;61.17;101456.78;4995038;28;20057;-79
2023/05/31 04:46:16;;;;;;;17.80;12.20;;;15.60;76.50;;;15.16;60.83;101462.06;4994304;28;20513;-79
2023/05/31 04:48:45;;;;;;;18.65;12.27;;;15.70;76.20;;;15.29;60.63;101455.78;5005188;28;20612;-79
2023/05/31 04:51:13;;;;;;;19.77;12.48;;;15.90;76.20;;;15.43;60.54;101460.03;5004678;28;20058;-79
2023/05/31 04:53:40;;;;;;;18.02;12.25;;;16.00;76.00;;;15.55;60.24;101454.75;5006310;28;20120;-79
2023/05/31 04:56:09;;;;;;;19.80;12.27;;;16.10;75.50;;;15.66;60.06;101459.44;5008192;28;20038;-79
2023/05/31 04:58:38;;;;;;;18.60;12.45;;;16.20;75.20;;;15.84;59.56;101456.78;4987560;28;20042;-78
2023/05/31 05:01:06;;;;;;;19.30;12.10;;;16.40;74.60;;;15.99;59.30;101448.38;4990948;28;20038;-79
2023/05/31 05:03:44;;;;;;;20.65;12.40;;;16.60;74.30;;;16.15;58.99;101452.31;4980448;28;20042;-80
2023/05/31 05:06:22;;;;;;;21.55;12.02;;;16.70;73.90;;;16.31;58.22;101453.63;5001502;28;20050;-77
2023/05/31 05:08:49;;;;;;;23.05;12.02;;;16.90;73.10;;;16.43;57.64;101446.41;5003922;28;20544;-79
2023/05/31 05:11:17;;;;;;;18.23;12.38;;;17.00;72.30;;;16.50;57.23;101449.88;4988498;28;20038;-79
2023/05/31 05:13:44;;;;;;;18.90;11.80;;;17.10;72.00;;;16.62;57.16;101452.63;4987288;28;20057;-80
2023/05/31 05:16:12;;;;;;;18.30;11.57;;;17.20;71.90;;;16.73;56.64;101450.00;5003740;28;20038;-80
2023/05/31 05:18:39;;;;;;;19.33;12.00;;;17.30;71.20;;;16.84;56.44;101453.00;5004957;28;20450;-80
2023/05/31 05:21:08;;;;;;;20.67;12.77;;;17.40;71.00;;;16.96;56.37;101453.84;5006916;28;20060;-80
2023/05/31 05:23:39;;;;;;;;;;;17.50;70.80;;;17.06;56.01;101455.97;5004266;28;20050;-80
2023/05/31 05:26:06;;;;;;;17.50;11.38;;;17.70;70.40;;;17.13;55.33;101457.53;5007076;28;19937;-80
2023/05/31 05:28:35;;;;;;;17.48;11.23;;;17.70;69.50;;;17.22;55.86;101461.53;5004595;28;20092;-79
2023/05/31 05:31:03;;;;;;;18.38;11.35;;;17.80;70.10;;;17.31;54.91;101462.00;4984606;28;20046;-78
2023/05/31 05:33:33;;;;;;;14.43;10.10;;;17.90;69.10;;;17.38;54.84;101464.63;4991851;28;20129;-79
2023/05/31 05:36:02;;;;;;;17.65;11.32;;;18.00;68.90;;;17.44;54.67;101461.81;4991625;28;20042;-80
2023/05/31 05:38:32;;;;;;;18.95;10.50;;;18.10;68.70;;;17.50;54.07;101465.44;5007433;28;20095;-80
2023/05/31 05:40:59;;;;;;;17.13;9.70;;;18.10;68.00;;;17.51;54.25;101451.72;5003339;28;20433;-80
2023/05/31 05:43:28;;;;;;;18.20;10.38;;;18.10;68.20;;;17.60;54.02;101456.78;5007076;28;20614;-83
2023/05/31 05:46:04;;;;;;;15.80;10.65;;;18.20;68.00;;;17.68;53.94;101451.03;4988007;28;20451;-82
2023/05/31 05:48:31;;;;;;;17.20;10.23;;;18.30;67.80;;;17.77;53.95;101457.78;4989008;28;20042;-83
2023/05/31 05:50:59;;;;;;;20.60;10.90;;;18.40;67.70;;;17.86;53.65;101453.66;4990294;28;20600;-83
2023/05/31 05:53:28;;;;;;;15.35;9.93;;;18.50;67.20;;;17.96;53.49;101453.06;5002904;28;20690;-84
2023/05/31 05:55:57;;;;;;;17.05;10.75;;;18.60;67.10;;;18.06;53.25;101460.56;5004083;28;20065;-84
2023/05/31 05:58:29;;;;;;;15.43;10.05;;;18.70;67.00;;;18.15;53.05;101462.66;4989494;28;20050;-84
2023/05/31 06:01:18;;;;;;;15.15;9.50;;;18.80;66.60;;;18.24;52.83;101461.22;5002407;28;20132;-85
2023/05/31 06:03:48;;;;;;;16.00;10.40;;;18.90;66.40;;;18.31;52.66;101453.00;4990316;28;20045;-84
2023/05/31 06:06:16;;;;;;;16.58;10.18;;;18.90;66.10;;;18.42;52.91;101468.38;4990089;28;20509;-84
2023/05/31 06:08:44;;;;;;;14.82;10.07;;;19.00;66.40;;;18.51;52.14;101458.81;4988238;28;20065;-84
2023/05/31 06:11:13;;;;;;;16.95;9.70;;;19.20;65.60;;;18.59;52.44;101460.31;4990410;28;20760;-84
2023/05/31 06:13:40;;;;;;;16.45;9.32;;;19.20;65.60;;;18.66;52.19;101454.78;4991231;28;20077;-84
2023/05/31 06:16:07;;;;;;;17.52;9.55;;;19.30;65.60;;;18.76;52.19;101449.59;5003053;28;20046;-84
2023/05/31 06:18:35;;;;;;;20.27;9.27;;;19.40;65.30;;;18.80;51.44;101450.78;4990195;28;20430;-84
2023/05/31 06:21:04;;;;;;;17.70;9.65;;;19.40;64.40;;;18.85;50.62;101455.44;5003257;28;20088;-84
2023/05/31 06:23:34;;;;;;;15.75;8.30;;;19.50;63.90;;;18.92;50.99;101456.94;4990555;28;20108;-84
2023/05/31 06:26:01;;;;;;;18.52;8.63;;;19.50;64.10;;;18.97;50.84;101467.84;5008621;28;20402;-83
2023/05/31 06:28:30;;;;;;;15.55;9.43;;;19.60;63.80;;;19.02;50.35;101457.09;5003501;28;20621;-84
2023/05/31 06:31:00;;;;;;;16.97;9.43;;;19.70;63.30;;;19.07;50.02;101460.97;4990877;28;20050;-83
2023/05/31 06:33:27;;;;;;;12.77;8.45;;;19.70;62.80;;;19.10;50.11;101453.19;5008659;28;20050;-84
2023/05/31 06:35:55;;;;;;;13.95;9.13;;;19.80;62.60;;;19.18;50.64;101460.09;4989914;28;20585;-84
2023/05/31 06:38:23;;;;;;;13.43;8.32;;;19.80;63.30;;;19.23;49.95;101447.50;4990176;28;20056;-83
2023/05/31 06:40:50;;;;;;;15.77;8.95;;;19.90;62.40;;;19.23;49.89;101452.91;5004874;28;20111;-84
2023/05/31 06:43:17;;;;;;;14.52;8.10;;;19.90;62.30;;;19.27;49.86;101455.91;4986053;28;20794;-84
2023/05/31 06:46:07;;;;;;;15.80;7.78;;;19.90;62.40;;;19.31;49.95;101457.06;5005164;28;20053;-83
2023/05/31 06:48:53;;;;;;;15.70;8.68;;;20.00;62.40;;;19.38;49.17;101455.03;5008532;28;20426;-83
2023/05/31 06:51:52;;;;;;;15.85;8.20;;;20.00;61.10;;;19.41;49.05;101446.41;4998470;28;20042;-83
2023/05/31 06:54:38;;;;;;;15.95;7.90;;;20.10;61.40;;;19.50;49.59;101454.94;5004499;28;20916;-83
2023/05/31 06:57:06;;;;;;;20.20;8.05;;;20.20;62.00;;;19.54;48.89;101451.50;4988771;28;20049;-83
2023/05/31 06:59:34;;;;;;;17.92;7.75;;;20.20;61.40;;;19.60;49.59;101454.31;5004931;28;20038;-84
2023/05/31 07:02:03;;;;;;;16.48;7.80;;;20.30;62.00;;;19.63;49.54;101456.53;4980356;28;20069;-81
2023/05/31 07:04:30;;;;;;;13.85;7.90;;;20.30;61.60;;;19.72;49.71;101461.28;4988704;28;20577;-83
2023/05/31 07:06:57;;;;;;;17.73;8.30;;;20.40;61.80;;;19.73;48.60;101452.09;4984592;28;20092;-82
2023/05/31 07:09:25;;;;;;;12.75;8.25;;;20.40;60.60;;;19.78;48.61;101449.47;4990619;28;20125;-82
2023/05/31 07:11:57;;;;;;;15.65;8.82;;;20.40;60.40;;;19.82;47.80;101452.50;4987476;28;20060;-83
2023/05/31 07:14:29;;;;;;;16.95;8.38;;;20.50;59.60;;;19.86;48.09;101450.91;4990307;28;20559;-82
2023/05/31 07:16:56;;;;;;;16.48;8.55;;;20.60;60.00;;;19.90;47.46;101448.53;4986403;28;20049;-82
2023/05/31 07:19:25;;;;;;;16.52;8.57;;;20.60;59.20;;;19.87;47.45;101443.63;5005820;28;20080;-82
2023/05/31 07:21:52;;;;;;;15.20;7.32;;;20.60;59.20;;;19.90;48.28;101445.81;5006757;28;20045;-83
2023/05/31 07:24:19;;;;;;;18.98;7.80;;;20.60;60.00;;;19.96;48.71;101455.66;5005146;28;20050;-82
2023/05/31 07:26:46;;;;;;;15.48;7.35;;;20.60;60.20;;;20.02;47.81;101446.56;4998408;28;20030;-82
2023/05/31 07:29:14;;;;;;;14.90;6.95;;;20.70;59.60;;;20.08;48.75;101452.84;5009010;28;20045;-82
2023/05/31 07:31:41;;;;;;;15.20;7.38;;;20.70;60.60;;;20.11;47.28;101449.66;5023316;22;20098;-82
2023/05/31 07:34:09;;;;;;;16.85;7.22;;;20.80;58.70;;;20.15;47.81;101448.06;5031314;28;20049;-82
2023/05/31 07:36:39;;;;;;;17.60;8.18;;;20.80;59.10;;;20.13;47.91;101442.09;5023535;28;20483;-83
2023/05/31 07:39:10;;;;;;;17.25;7.72;;;20.80;59.20;;;20.19;48.20;101441.06;5029616;28;20132;-82
2023/05/31 07:41:37;;;;;;;15.32;6.75;;;20.90;59.40;;;20.23;47.86;101442.22;5026513;28;20449;-84
2023/05/31 07:44:05;;;;;;;13.52;6.90;;;20.90;59.30;;;20.25;46.93;101435.50;5026430;28;20045;-83
2023/05/31 07:46:32;;;;;;;16.60;6.85;;;20.90;58.30;;;20.27;46.62;101437.94;5028683;28;20389;-82
2023/05/31 07:48:59;;;;;;;16.08;6.28;;;20.90;58.00;;;20.32;47.21;101438.81;5021440;28;20478;-84
2023/05/31 07:51:29;;;;;;;13.10;6.72;;;21.00;58.70;;;20.33;46.59;101447.75;5020700;28;20041;-83
2023/05/31 07:53:57;;;;;;;19.27;7.32;;;21.00;57.90;;;20.39;46.11;101443.22;5035735;28;20221;-83
2023/05/31 07:56:25;;;;;;;13.80;7.05;;;21.10;57.70;;;20.41;46.65;101439.19;5035333;28;20124;-83
2023/05/31 07:58:52;;;;;;;15.73;6.93;;;21.10;58.00;;;20.46;45.81;101439.25;5051050;28;20063;-83
2023/05/31 08:01:19;;;;;;;13.02;6.78;;;21.10;57.30;;;20.50;46.67;101439.59;5039501;28;20516;-82
2023/05/31 08:03:49;;;;;;;15.52;5.97;;;21.10;58.10;;;20.53;45.98;101442.59;5032174;28;20069;-84
2023/05/31 08:06:16;;;;;;;11.75;6.28;;;21.20;57.40;;;20.61;46.34;101441.34;5026421;28;20903;-82
2023/05/31 08:08:44;;;;;;;11.52;5.65;;;21.30;57.80;;;20.64;46.39;101426.44;5026761;28;20050;-84
2023/05/31 08:11:12;;;;;;;12.23;6.25;;;21.30;57.60;;;20.69;46.35;101431.94;5025364;28;20564;-83
2023/05/31 08:13:40;;;;;;;12.20;6.63;;;21.40;57.60;;;20.73;45.22;101425.75;5021640;28;20061;-82
2023/05/31 08:16:07;;;;;;;11.38;5.95;;;21.40;56.60;;;20.73;44.66;101428.44;5034198;28;20040;-82
2023/05/31 08:18:35;;;;;;;10.20;5.90;;;21.40;55.90;;;20.74;45.40;101430.13;5035421;28;20129;-79
2023/05/31 08:21:02;;;;;;;13.07;6.10;;;21.40;56.60;;;20.79;45.03;101427.44;5021549;28;20128;-81
2023/05/31 08:23:29;;;;;;;14.05;6.13;;;21.50;55.70;;;20.85;45.07;101424.78;5027653;28;20048;-82
2023/05/31 08:25:57;;;;;;;11.00;5.65;;;21.50;56.40;;;20.87;44.78;101423.44;5005431;28;20473;-81
2023/05/31 08:28:25;;;;;;;10.88;5.68;;;21.50;55.90;;;20.96;46.60;101421.91;5021696;28;20069;-80
2023/05/31 08:30:52;;;;;;;12.15;5.60;;;21.60;57.70;;;21.05;44.64;101416.84;5037552;28;20041;-81
2023/05/31 08:33:20;;;;;;;10.63;5.50;;;21.70;55.90;;;21.08;43.91;101410.88;5027392;28;20060;-80
2023/05/31 08:35:47;;;;;;;10.27;4.97;;;21.70;54.50;;;21.09;44.49;101410.66;5018564;28;20116;-81
2023/05/31 08:38:14;;;;;;;11.93;5.18;;;21.80;55.50;;;21.14;43.52;101414.47;5016192;28;20743;-82
2023/05/31 08:40:43;;;;;;;11.93;5.57;;;21.80;54.50;;;21.15;43.54;101410.69;5021993;28;20048;-81
2023/05/31 08:43:15;;;;;;;12.43;5.18;;;21.80;54.30;;;21.19;43.21;101404.47;5019586;28;20041;-83
2023/05/31 08:45:44;;;;;;;12.38;5.30;;;21.80;53.80;;;21.20;43.92;101403.41;5016422;28;20045;-81
2023/05/31 08:48:20;;;;;;;10.00;4.93;;;21.90;54.70;;;21.24;43.82;101403.72;5039616;28;20045;-81
2023/05/31 08:50:50;;;;;;;12.57;4.70;;;21.90;54.70;;;21.25;44.24;101403.44;5028542;28;20124;-82
2023/05/31 08:53:19;;;;;;;13.30;4.57;;;22.00;55.10;;;21.31;42.88;101399.72;5035351;28;20092;-82
2023/05/31 08:55:48;;;;;;;12.02;5.25;;;22.00;53.20;;;21.32;43.04;101406.75;5025600;28;20047;-82
2023/05/31 08:58:16;;;;;;;12.38;4.65;;;22.00;53.30;;;21.32;43.46;101401.34;5034246;28;20051;-82
2023/05/31 09:00:46;;;;;;;11.05;4.63;;;22.00;53.80;;;21.36;43.15;101398.13;5032325;28;20114;-82
2023/05/31 09:03:13;;;;;;;10.02;4.45;;;22.10;53.70;;;21.38;42.05;101404.13;5028816;28;20064;-80
2023/05/31 09:05:41;;;;;;;13.15;4.90;;;22.10;52.50;;;21.38;43.16;101390.56;5020686;28;20052;-83
2023/05/31 09:08:08;;;;;;;14.45;4.68;;;22.10;53.40;;;21.42;43.43;101397.06;5037380;28;20059;-82
2023/05/31 09:10:35;;;;;;;9.82;4.78;;;22.10;53.80;;;21.52;43.86;101397.13;5034479;28;20041;-81
2023/05/31 09:13:04;;;;;;;9.75;4.00;;;22.20;54.10;;;21.43;41.26;101394.13;5020022;28;20553;-81
2023/05/31 09:15:32;;;;;;;11.48;4.18;;;22.10;51.40;;;21.41;41.88;101390.00;5020529;28;20041;-80
2023/05/31 09:18:15;;;;;;;7.13;3.55;;;22.10;51.90;;;21.45;41.86;101391.94;5027142;28;20854;-81
2023/05/31 09:20:42;;;;;;;12.15;4.18;;;22.10;51.50;;;21.48;41.60;101386.00;5020296;28;20128;-81
2023/05/31 09:23:10;;;;;;;13.73;4.18;;;22.20;51.50;;;21.49;40.92;101395.78;5023025;28;20053;-82
2023/05/31 09:25:45;;;;;;;11.73;4.50;;;22.20;50.70;;;21.44;39.90;101386.78;5024549;28;20514;-81
2023/05/31 09:28:12;;;;;;;11.02;4.25;;;22.10;49.80;;;21.40;40.84;101382.94;5047882;28;20041;-82
2023/05/31 09:30:40;;;;;;;11.27;4.50;;;22.10;50.40;;;21.48;43.14;101377.03;5011009;28;20041;-80
2023/05/31 09:33:10;;;;;;;11.80;4.40;;;22.20;53.30;;;21.50;41.00;101383.84;5037972;28;20060;-82
2023/05/31 09:35:37;;;;;;;13.02;5.47;;;22.20;51.10;;;21.45;41.33;101372.94;5047892;28;20039;-81
2023/05/31 09:38:06;;;;;;;10.60;4.10;;;22.10;51.10;;;21.45;41.17;101372.94;5012525;28;20053;-83
2023/05/31 09:40:34;;;;;;;10.80;4.13;;;22.10;51.10;;;21.44;40.31;101376.75;5022772;28;20049;-81
2023/05/31 09:43:02;;;;;;;11.30;3.58;;;22.10;50.10;;;21.45;42.86;101372.94;5027109;28;20041;-82
2023/05/31 09:45:29;;;;;;;9.63;3.58;;;22.20;53.30;;;21.50;40.98;101372.97;5033814;28;20116;-83
2023/05/31 09:47:57;;;;;;;8.88;3.78;;;22.20;50.50;;;21.52;39.83;101370.00;5045136;28;20064;-80
2023/05/31 09:50:25;;;;;;;8.73;3.58;;;22.20;49.20;;;21.50;39.14;101361.31;5048731;28;20047;-82
2023/05/31 09:52:58;;;;;;;10.98;3.40;;;22.20;48.00;;;21.53;38.42;101363.50;5037180;28;20041;-81
2023/05/31 09:55:38;;;;;;;8.00;3.17;;;22.20;47.30;;;21.54;37.74;101363.22;5009327;28;20049;-81
2023/05/31 09:58:06;;;;;;;13.98;3.15;;;22.20;46.50;;;21.54;37.11;101355.09;5026405;28;20529;-81
2023/05/31 10:00:33;;;;;;;11.50;3.17;;;22.30;45.80;;;21.56;37.45;101352.09;5026568;28;20052;-80
2023/05/31 10:03:02;;;;;;;9.80;3.70;;;22.20;45.90;;;21.56;38.02;101347.50;5032244;28;20081;-80
2023/05/31 10:05:31;;;;;;;8.68;3.30;;;22.20;46.80;;;21.53;38.11;101353.47;5029589;28;20402;-82
2023/05/31 10:07:58;;;;;;;13.23;3.60;;;22.20;46.90;;;21.55;39.67;101348.56;5014865;28;20132;-81
2023/05/31 10:10:26;;;;;;;10.48;3.17;;;22.20;48.80;;;21.68;38.06;101349.19;5028686;28;20064;-81
2023/05/31 10:12:58;;;;;;;6.78;2.80;;;22.30;47.30;;;21.73;37.04;101346.50;5028043;28;20136;-81